Pahoa, HI

4:21 AM HST on August 16, 2017 (GMT -1000)
Leilani Estates | | Change Station
Active Advisory: Special Statement

Elev 768 ft 19.47 °N, 154.92 °W | Updated 57 seconds ago

Mostly Cloudy
Mostly Cloudy
69.0 °F
Feels Like 69.0 °F
N
0.0
Wind Variable Wind from WNW

Today
High -- | Low -- °F
--% Chance of Precip.
Yesterday
High -- | Low -- °F
Precip. -- in
Pressure 29.96 in
Visibility 10.0 miles
Clouds Scattered Clouds 1000 ft
Mostly Cloudy 2400 ft
Overcast 3100 ft
Dew Point 68 °F
Humidity 98%
Rainfall 0.07 in
Snow Depth Not available.
6:00 AM 6:46 PM
Waning Crescent, 33% visible
SPECI PHTO 161415Z AUTO 27005KT 10SM SCT010 BKN024 OVC031 22/21 A2996 RMK AO2 RAE1356 P0000 T02220211 TSNO
Pressure 29.96 in
Visibility 10.0 miles
Clouds Scattered Clouds 1000 ft
Mostly Cloudy 2400 ft
Overcast 3100 ft
Dew Point 68 °F
Humidity 98%
Rainfall 0.07 in
Snow Depth Not available.
6:00 AM 6:46 PM
Waning Crescent, 33% visible
SPECI PHTO 161415Z AUTO 27005KT 10SM SCT010 BKN024 OVC031 22/21 A2996 RMK AO2 RAE1356 P0000 T02220211 TSNO

Get Your Daily Forecast Email!

Thanks for signing up!

Be on the lookout for a verification email in your inbox.

You'll start receiving severe weather alerts in your inbox..

×

10-Day Weather Forecast

Almanac

Astronomy

Aug. 16, 2017 Rise Set
Actual Time
Civil Twilight
Nautical Twilight
Astronomical Twilight
Moon
Length of Visible Light
Length of Day
Tomorrow will be .
, % of the Moon is Illuminated

Today's Extremes

State Highs State Lows

Community

WunderPhotos

Category 6

Welcome to Category 6. This is the collective home for Weather Underground's featured writeups by Dr. Jeff Masters (right), Bob Henson (left), Chris Burt, and other regular contributors.

Nearby

Air Quality

  Air Quality AQ Index Pollutant
Not available.

Snow Depth

Station Depth Elevation

Earthquake Activity

City Distance Mag. Time & Date
Minimum magnitude displayed is 2.5.

Coastal Water Temperatures

Place Temperature

Stations

Nearby Weather Stations

Station Location Temp. Windchill Dew Point Humidity Wind Precip. Elev Updated Type
                   

Watches & Warnings

Special Statement
Issued: 3:25 PM HST Aug. 15, 2017 – National Weather Service

... Coastal flooding possible...

Coastal flooding associated with King tides will be a possibility
the next couple of days. The greatest potential for coastal
flooding impacts will be during the midday over the next couple of
days, and in the mid to late afternoon hours Friday into early
next week. Visit tidesandcurrents.NOAA.Gov for more specific
information about forecast tides and water levels in your area.

Impacts of the King tides may include flooding of beaches that
are normally dry, salt water inundation of typically vulnerable
low-lying roads, docks, boat ramps and other coastal
infrastructure. The potential for coastal flooding will diminish
early next week as the peak daily tides diminish.